sensor_id;sensor_type;location;lat;lon;timestamp;pressure;altitude;pressure_sealevel;temperature;humidity
22283;BME280;11310;51.528;21.204;2023-01-31T00:00:37;98823.22;;;2.02;100.00
22283;BME280;11310;51.528;21.204;2023-01-31T00:03:05;98821.53;;;2.01;100.00
22283;BME280;11310;51.528;21.204;2023-01-31T00:05:34;98816.38;;;2.01;100.00
22283;BME280;11310;51.528;21.204;2023-01-31T00:08:04;98825.81;;;2.02;100.00
22283;BME280;11310;51.528;21.204;2023-01-31T00:10:32;98824.06;;;2.04;100.00
22283;BME280;11310;51.528;21.204;2023-01-31T00:13:01;98829.22;;;2.04;100.00
22283;BME280;11310;51.528;21.204;2023-01-31T00:15:31;98833.44;;;2.06;100.00
22283;BME280;11310;51.528;21.204;2023-01-31T00:17:59;98829.09;;;2.07;100.00
22283;BME280;11310;51.528;21.204;2023-01-31T00:20:28;98845.44;;;2.09;100.00
22283;BME280;11310;51.528;21.204;2023-01-31T00:22:57;98838.47;;;2.11;100.00
22283;BME280;11310;51.528;21.204;2023-01-31T00:25:26;98842.69;;;2.13;100.00
22283;BME280;11310;51.528;21.204;2023-01-31T00:27:55;98843.56;;;2.14;100.00
22283;BME280;11310;51.528;21.204;2023-01-31T00:30:23;98845.22;;;2.15;100.00
22283;BME280;11310;51.528;21.204;2023-01-31T00:32:53;98839.25;;;2.13;100.00
22283;BME280;11310;51.528;21.204;2023-01-31T00:35:23;98842.69;;;2.13;100.00
22283;BME280;11310;51.528;21.204;2023-01-31T00:37:52;98842.66;;;2.15;100.00
22283;BME280;11310;51.528;21.204;2023-01-31T00:40:20;98848.69;;;2.15;100.00
22283;BME280;11310;51.528;21.204;2023-01-31T00:42:48;98849.50;;;2.16;100.00
22283;BME280;11310;51.528;21.204;2023-01-31T00:45:17;98863.25;;;2.18;100.00
22283;BME280;11310;51.528;21.204;2023-01-31T00:47:47;98858.09;;;2.18;100.00
22283;BME280;11310;51.528;21.204;2023-01-31T00:50:17;98854.59;;;2.19;100.00
22283;BME280;11310;51.528;21.204;2023-01-31T00:52:46;98854.47;;;2.22;100.00
22283;BME280;11310;51.528;21.204;2023-01-31T00:55:15;98849.22;;;2.25;100.00
22283;BME280;11310;51.528;21.204;2023-01-31T00:57:44;98854.34;;;2.26;100.00
22283;BME280;11310;51.528;21.204;2023-01-31T01:00:14;98856.03;;;2.27;100.00
22283;BME280;11310;51.528;21.204;2023-01-31T01:02:42;98862.03;;;2.29;100.00
22283;BME280;11310;51.528;21.204;2023-01-31T01:05:11;98864.53;;;2.31;100.00
22283;BME280;11310;51.528;21.204;2023-01-31T01:07:41;98862.75;;;2.33;100.00
22283;BME280;11310;51.528;21.204;2023-01-31T01:10:10;98867.94;;;2.33;100.00
22283;BME280;11310;51.528;21.204;2023-01-31T01:12:39;98861.91;;;2.32;100.00
22283;BME280;11310;51.528;21.204;2023-01-31T01:15:12;98858.41;;;2.33;100.00
22283;BME280;11310;51.528;21.204;2023-01-31T01:17:42;98867.91;;;2.34;100.00
22283;BME280;11310;51.528;21.204;2023-01-31T01:20:10;98866.13;;;2.35;100.00
22283;BME280;11310;51.528;21.204;2023-01-31T01:22:40;98867.84;;;2.36;100.00
22283;BME280;11310;51.528;21.204;2023-01-31T01:25:09;98863.59;;;2.33;100.00
22283;BME280;11310;51.528;21.204;2023-01-31T01:27:37;98869.53;;;2.37;100.00
22283;BME280;11310;51.528;21.204;2023-01-31T01:30:08;98863.47;;;2.38;100.00
22283;BME280;11310;51.528;21.204;2023-01-31T01:32:37;98874.59;;;2.40;100.00
22283;BME280;11310;51.528;21.204;2023-01-31T01:35:07;98878.00;;;2.42;100.00
22283;BME280;11310;51.528;21.204;2023-01-31T01:37:36;98878.00;;;2.42;100.00
22283;BME280;11310;51.528;21.204;2023-01-31T01:40:07;98881.38;;;2.44;100.00
22283;BME280;11310;51.528;21.204;2023-01-31T01:42:36;98878.78;;;2.44;100.00
22283;BME280;11310;51.528;21.204;2023-01-31T01:45:10;98884.78;;;2.46;100.00
22283;BME280;11310;51.528;21.204;2023-01-31T01:47:45;98891.59;;;2.48;100.00
22283;BME280;11310;51.528;21.204;2023-01-31T01:50:19;98889.81;;;2.49;100.00
22283;BME280;11310;51.528;21.204;2023-01-31T01:52:51;98893.31;;;2.48;100.00
22283;BME280;11310;51.528;21.204;2023-01-31T01:55:26;98894.13;;;2.50;100.00
22283;BME280;11310;51.528;21.204;2023-01-31T01:57:59;98897.53;;;2.50;100.00
22283;BME280;11310;51.528;21.204;2023-01-31T02:00:30;98898.28;;;2.54;100.00
22283;BME280;11310;51.528;21.204;2023-01-31T02:03:02;98910.34;;;2.55;100.00
22283;BME280;11310;51.528;21.204;2023-01-31T02:05:35;98904.31;;;2.54;100.00
22283;BME280;11310;51.528;21.204;2023-01-31T02:08:06;98912.13;;;2.53;100.00
22283;BME280;11310;51.528;21.204;2023-01-31T02:10:44;98913.03;;;2.52;100.00
22283;BME280;11310;51.528;21.204;2023-01-31T02:13:15;98917.41;;;2.50;100.00
22283;BME280;11310;51.528;21.204;2023-01-31T02:15:45;98918.22;;;2.52;100.00
22283;BME280;11310;51.528;21.204;2023-01-31T02:18:15;98922.47;;;2.53;100.00
22283;BME280;11310;51.528;21.204;2023-01-31T02:24:05;98937.91;;;2.56;100.00
22283;BME280;11310;51.528;21.204;2023-01-31T02:27:04;98937.03;;;2.57;100.00
22283;BME280;11310;51.528;21.204;2023-01-31T02:30:00;98947.34;;;2.58;100.00
22283;BME280;11310;51.528;21.204;2023-01-31T02:32:46;98948.19;;;2.59;100.00
22283;BME280;11310;51.528;21.204;2023-01-31T02:35:23;98946.47;;;2.58;100.00
22283;BME280;11310;51.528;21.204;2023-01-31T02:38:06;98955.06;;;2.60;100.00
22283;BME280;11310;51.528;21.204;2023-01-31T02:40:46;98955.97;;;2.59;100.00
22283;BME280;11310;51.528;21.204;2023-01-31T02:43:21;98963.66;;;2.60;100.00
22283;BME280;11310;51.528;21.204;2023-01-31T02:45:59;98972.28;;;2.61;100.00
22283;BME280;11310;51.528;21.204;2023-01-31T02:48:35;98970.59;;;2.60;100.00
22283;BME280;11310;51.528;21.204;2023-01-31T02:51:14;98978.38;;;2.58;100.00
22283;BME280;11310;51.528;21.204;2023-01-31T02:53:52;98983.59;;;2.57;100.00
22283;BME280;11310;51.528;21.204;2023-01-31T02:56:27;98984.50;;;2.56;100.00
22283;BME280;11310;51.528;21.204;2023-01-31T02:59:00;98985.28;;;2.58;100.00
22283;BME280;11310;51.528;21.204;2023-01-31T03:01:33;98989.69;;;2.56;100.00
22283;BME280;11310;51.528;21.204;2023-01-31T03:04:06;99002.72;;;2.53;100.00
22283;BME280;11310;51.528;21.204;2023-01-31T03:06:57;99014.75;;;2.54;100.00
22283;BME280;11310;51.528;21.204;2023-01-31T03:09:41;99007.06;;;2.52;100.00
22283;BME280;11310;51.528;21.204;2023-01-31T03:12:25;99011.34;;;2.53;100.00
22283;BME280;11310;51.528;21.204;2023-01-31T03:15:25;99008.69;;;2.55;100.00
22283;BME280;11310;51.528;21.204;2023-01-31T03:18:20;99007.81;;;2.56;100.00
22283;BME280;11310;51.528;21.204;2023-01-31T03:20:54;99022.38;;;2.58;100.00
22283;BME280;11310;51.528;21.204;2023-01-31T03:23:27;99019.81;;;2.58;100.00
22283;BME280;11310;51.528;21.204;2023-01-31T03:25:57;99039.56;;;2.61;100.00
22283;BME280;11310;51.528;21.204;2023-01-31T03:28:29;99034.31;;;2.64;100.00
22283;BME280;11310;51.528;21.204;2023-01-31T03:31:06;99034.19;;;2.67;100.00
22283;BME280;11310;51.528;21.204;2023-01-31T03:33:41;99040.16;;;2.70;100.00
22283;BME280;11310;51.528;21.204;2023-01-31T03:36:20;99041.09;;;2.68;100.00
22283;BME280;11310;51.528;21.204;2023-01-31T03:39:08;99042.78;;;2.69;100.00
22283;BME280;11310;51.528;21.204;2023-01-31T03:41:48;99044.56;;;2.67;100.00
22283;BME280;11310;51.528;21.204;2023-01-31T03:44:25;99046.34;;;2.65;100.00
22283;BME280;11310;51.528;21.204;2023-01-31T03:47:04;99053.22;;;2.66;100.00
22283;BME280;11310;51.528;21.204;2023-01-31T03:49:36;99058.31;;;2.69;100.00
22283;BME280;11310;51.528;21.204;2023-01-31T03:52:11;99054.06;;;2.66;100.00
22283;BME280;11310;51.528;21.204;2023-01-31T03:54:48;99057.50;;;2.67;100.00
22283;BME280;11310;51.528;21.204;2023-01-31T03:57:21;99062.66;;;2.67;100.00
22283;BME280;11310;51.528;21.204;2023-01-31T03:59:54;99064.47;;;2.65;100.00
22283;BME280;11310;51.528;21.204;2023-01-31T04:02:30;99063.56;;;2.66;100.00
22283;BME280;11310;51.528;21.204;2023-01-31T04:05:06;99065.38;;;2.64;100.00
22283;BME280;11310;51.528;21.204;2023-01-31T04:07:40;99071.41;;;2.63;100.00
22283;BME280;11310;51.528;21.204;2023-01-31T04:10:18;99076.59;;;2.63;100.00
22283;BME280;11310;51.528;21.204;2023-01-31T04:12:46;99077.41;;;2.65;100.00
22283;BME280;11310;51.528;21.204;2023-01-31T04:15:15;99080.78;;;2.67;100.00
22283;BME280;11310;51.528;21.204;2023-01-31T04:17:45;99079.97;;;2.66;100.00
22283;BME280;11310;51.528;21.204;2023-01-31T04:20:13;99080.91;;;2.64;100.00
22283;BME280;11310;51.528;21.204;2023-01-31T04:22:43;99092.94;;;2.65;100.00
22283;BME280;11310;51.528;21.204;2023-01-31T04:25:11;99097.31;;;2.63;100.00
22283;BME280;11310;51.528;21.204;2023-01-31T04:27:40;99105.00;;;2.66;100.00
22283;BME280;11310;51.528;21.204;2023-01-31T04:30:10;99105.00;;;2.66;100.00
22283;BME280;11310;51.528;21.204;2023-01-31T04:32:38;99106.69;;;2.67;100.00
22283;BME280;11310;51.528;21.204;2023-01-31T04:35:07;99114.41;;;2.68;100.00
22283;BME280;11310;51.528;21.204;2023-01-31T04:37:36;99117.84;;;2.69;100.00
22283;BME280;11310;51.528;21.204;2023-01-31T04:40:07;99115.28;;;2.69;100.00
22283;BME280;11310;51.528;21.204;2023-01-31T04:42:37;99121.38;;;2.66;100.00
22283;BME280;11310;51.528;21.204;2023-01-31T04:45:06;99124.75;;;2.68;100.00
22283;BME280;11310;51.528;21.204;2023-01-31T04:47:35;99127.38;;;2.67;100.00
22283;BME280;11310;51.528;21.204;2023-01-31T04:50:05;99117.03;;;2.67;100.00
22283;BME280;11310;51.528;21.204;2023-01-31T04:52:33;99128.22;;;2.69;100.00
22283;BME280;11310;51.528;21.204;2023-01-31T04:55:02;99128.25;;;2.67;100.00
22283;BME280;11310;51.528;21.204;2023-01-31T04:57:35;99136.88;;;2.68;100.00
22283;BME280;11310;51.528;21.204;2023-01-31T05:00:08;99140.28;;;2.68;100.00
22283;BME280;11310;51.528;21.204;2023-01-31T05:02:36;99137.66;;;2.70;100.00
22283;BME280;11310;51.528;21.204;2023-01-31T05:05:06;99142.81;;;2.71;100.00
22283;BME280;11310;51.528;21.204;2023-01-31T05:07:35;99139.31;;;2.72;100.00
22283;BME280;11310;51.528;21.204;2023-01-31T05:10:04;99147.88;;;2.74;100.00
22283;BME280;11310;51.528;21.204;2023-01-31T05:12:35;99153.91;;;2.75;100.00
22283;BME280;11310;51.528;21.204;2023-01-31T05:15:04;99161.69;;;2.75;100.00
22283;BME280;11310;51.528;21.204;2023-01-31T05:17:35;99153.03;;;2.76;100.00
22283;BME280;11310;51.528;21.204;2023-01-31T05:20:11;99152.13;;;2.77;100.00
22283;BME280;11310;51.528;21.204;2023-01-31T05:22:39;99158.13;;;2.79;100.00
22283;BME280;11310;51.528;21.204;2023-01-31T05:25:08;99165.88;;;2.79;100.00
22283;BME280;11310;51.528;21.204;2023-01-31T05:27:39;99173.72;;;2.76;100.00
22283;BME280;11310;51.528;21.204;2023-01-31T05:30:11;99177.22;;;2.75;100.00
22283;BME280;11310;51.528;21.204;2023-01-31T05:32:39;99175.41;;;2.77;100.00
22283;BME280;11310;51.528;21.204;2023-01-31T05:35:08;99188.28;;;2.80;100.00
22283;BME280;11310;51.528;21.204;2023-01-31T05:37:38;99200.34;;;2.81;100.00
22283;BME280;11310;51.528;21.204;2023-01-31T05:40:09;99196.88;;;2.82;100.00
22283;BME280;11310;51.528;21.204;2023-01-31T05:42:40;99208.09;;;2.81;100.00
22283;BME280;11310;51.528;21.204;2023-01-31T05:45:10;99204.66;;;2.82;100.00
22283;BME280;11310;51.528;21.204;2023-01-31T05:47:39;99210.66;;;2.82;100.00
22283;BME280;11310;51.528;21.204;2023-01-31T05:50:09;99216.69;;;2.83;100.00
22283;BME280;11310;51.528;21.204;2023-01-31T05:52:38;99216.69;;;2.83;100.00
22283;BME280;11310;51.528;21.204;2023-01-31T05:55:07;99223.56;;;2.84;100.00
22283;BME280;11310;51.528;21.204;2023-01-31T05:57:36;99233.94;;;2.84;100.00
22283;BME280;11310;51.528;21.204;2023-01-31T06:00:07;99239.06;;;2.85;100.00
22283;BME280;11310;51.528;21.204;2023-01-31T06:02:39;99244.28;;;2.84;100.00
22283;BME280;11310;51.528;21.204;2023-01-31T06:05:08;99241.72;;;2.82;100.00
22283;BME280;11310;51.528;21.204;2023-01-31T06:07:37;99249.50;;;2.82;100.00
22283;BME280;11310;51.528;21.204;2023-01-31T06:10:09;99249.47;;;2.84;100.00
22283;BME280;11310;51.528;21.204;2023-01-31T06:12:38;99265.78;;;2.86;100.00
22283;BME280;11310;51.528;21.204;2023-01-31T06:15:09;99270.09;;;2.87;100.00
22283;BME280;11310;51.528;21.204;2023-01-31T06:17:38;99279.56;;;2.88;100.00
22283;BME280;11310;51.528;21.204;2023-01-31T06:20:08;99287.38;;;2.86;100.00
22283;BME280;11310;51.528;21.204;2023-01-31T06:22:36;99282.16;;;2.88;100.00
22283;BME280;11310;51.528;21.204;2023-01-31T06:25:05;99284.72;;;2.89;100.00
22283;BME280;11310;51.528;21.204;2023-01-31T06:27:34;99284.72;;;2.89;100.00
22283;BME280;11310;51.528;21.204;2023-01-31T06:30:03;99310.56;;;2.91;100.00
22283;BME280;11310;51.528;21.204;2023-01-31T06:32:33;99295.91;;;2.90;100.00
22283;BME280;11310;51.528;21.204;2023-01-31T06:35:02;99307.97;;;2.91;100.00
22283;BME280;11310;51.528;21.204;2023-01-31T06:37:31;99317.47;;;2.90;100.00
22283;BME280;11310;51.528;21.204;2023-01-31T06:40:00;99316.63;;;2.90;100.00
22283;BME280;11310;51.528;21.204;2023-01-31T06:42:29;99323.53;;;2.91;100.00
22283;BME280;11310;51.528;21.204;2023-01-31T06:44:57;99330.41;;;2.92;100.00
22283;BME280;11310;51.528;21.204;2023-01-31T06:47:26;99331.28;;;2.91;100.00
22283;BME280;11310;51.528;21.204;2023-01-31T06:49:56;99341.56;;;2.94;100.00
22283;BME280;11310;51.528;21.204;2023-01-31T06:52:24;99343.34;;;2.92;100.00
22283;BME280;11310;51.528;21.204;2023-01-31T06:54:53;99358.00;;;2.93;100.00
22283;BME280;11310;51.528;21.204;2023-01-31T06:57:22;99349.31;;;2.94;100.00
22283;BME280;11310;51.528;21.204;2023-01-31T06:59:50;99356.28;;;2.92;100.00
22283;BME280;11310;51.528;21.204;2023-01-31T07:02:19;99355.41;;;2.93;100.00
22283;BME280;11310;51.528;21.204;2023-01-31T07:04:48;99352.81;;;2.93;100.00
22283;BME280;11310;51.528;21.204;2023-01-31T07:07:18;99362.31;;;2.92;100.00
22283;BME280;11310;51.528;21.204;2023-01-31T07:09:46;99370.16;;;2.91;100.00
22283;BME280;11310;51.528;21.204;2023-01-31T07:12:15;99358.06;;;2.90;100.00
22283;BME280;11310;51.528;21.204;2023-01-31T07:14:44;99363.34;;;2.87;100.00
22283;BME280;11310;51.528;21.204;2023-01-31T07:17:13;99370.22;;;2.88;100.00
22283;BME280;11310;51.528;21.204;2023-01-31T07:19:41;99378.78;;;2.90;100.00
22283;BME280;11310;51.528;21.204;2023-01-31T07:22:09;99373.53;;;2.93;100.00
22283;BME280;11310;51.528;21.204;2023-01-31T07:24:40;99377.84;;;2.92;100.00
22283;BME280;11310;51.528;21.204;2023-01-31T07:27:11;99384.75;;;2.93;100.00
22283;BME280;11310;51.528;21.204;2023-01-31T07:29:40;99387.28;;;2.95;100.00
22283;BME280;11310;51.528;21.204;2023-01-31T07:32:09;99392.53;;;2.93;100.00
22283;BME280;11310;51.528;21.204;2023-01-31T07:34:38;99394.22;;;2.94;100.00
22283;BME280;11310;51.528;21.204;2023-01-31T07:37:06;99394.19;;;2.96;100.00
22283;BME280;11310;51.528;21.204;2023-01-31T07:39:35;99404.44;;;2.99;100.00
22283;BME280;11310;51.528;21.204;2023-01-31T07:42:05;99406.16;;;3.00;100.00
22283;BME280;11310;51.528;21.204;2023-01-31T07:44:36;99413.03;;;3.01;100.00
22283;BME280;11310;51.528;21.204;2023-01-31T07:47:04;99408.75;;;3.00;100.00
22283;BME280;11310;51.528;21.204;2023-01-31T07:49:33;99405.28;;;3.01;100.00
22283;BME280;11310;51.528;21.204;2023-01-31T07:52:01;99416.44;;;3.03;100.00
22283;BME280;11310;51.528;21.204;2023-01-31T07:54:30;99417.25;;;3.05;100.00
22283;BME280;11310;51.528;21.204;2023-01-31T07:56:59;99414.66;;;3.05;100.00
22283;BME280;11310;51.528;21.204;2023-01-31T07:59:29;99425.78;;;3.08;100.00
22283;BME280;11310;51.528;21.204;2023-01-31T08:01:58;99424.88;;;3.11;100.00
22283;BME280;11310;51.528;21.204;2023-01-31T08:04:44;99429.97;;;3.14;100.00
22283;BME280;11310;51.528;21.204;2023-01-31T08:07:12;99423.81;;;3.18;100.00
22283;BME280;11310;51.528;21.204;2023-01-31T08:09:41;99440.09;;;3.23;100.00
22283;BME280;11310;51.528;21.204;2023-01-31T08:12:13;99445.19;;;3.26;100.00
22283;BME280;11310;51.528;21.204;2023-01-31T08:14:43;99452.94;;;3.27;100.00
22283;BME280;11310;51.528;21.204;2023-01-31T08:17:12;99460.66;;;3.29;100.00
22283;BME280;11310;51.528;21.204;2023-01-31T08:19:41;99469.25;;;3.31;100.00
22283;BME280;11310;51.528;21.204;2023-01-31T08:22:10;99470.13;;;3.30;100.00
22283;BME280;11310;51.528;21.204;2023-01-31T08:24:39;99475.28;;;3.31;100.00
22283;BME280;11310;51.528;21.204;2023-01-31T08:27:07;99471.84;;;3.31;100.00
22283;BME280;11310;51.528;21.204;2023-01-31T08:29:36;99483.09;;;3.30;100.00
22283;BME280;11310;51.528;21.204;2023-01-31T08:32:06;99487.38;;;3.31;100.00
22283;BME280;11310;51.528;21.204;2023-01-31T08:34:36;99487.38;;;3.31;100.00
22283;BME280;11310;51.528;21.204;2023-01-31T08:37:04;99492.66;;;3.28;100.00
22283;BME280;11310;51.528;21.204;2023-01-31T08:39:33;99498.63;;;3.31;100.00
22283;BME280;11310;51.528;21.204;2023-01-31T08:42:02;99488.13;;;3.36;100.00
22283;BME280;11310;51.528;21.204;2023-01-31T08:44:31;99490.59;;;3.40;100.00
22283;BME280;11310;51.528;21.204;2023-01-31T08:46:59;99499.19;;;3.42;100.00
22283;BME280;11310;51.528;21.204;2023-01-31T08:49:30;99491.31;;;3.47;100.00
22283;BME280;11310;51.528;21.204;2023-01-31T08:51:59;99506.69;;;3.53;100.00
22283;BME280;11310;51.528;21.204;2023-01-31T08:54:27;99503.13;;;3.57;100.00
22283;BME280;11310;51.528;21.204;2023-01-31T08:56:56;99501.31;;;3.59;100.00
22283;BME280;11310;51.528;21.204;2023-01-31T08:59:25;99503.06;;;3.60;100.00
22283;BME280;11310;51.528;21.204;2023-01-31T09:01:53;99505.69;;;3.58;100.00
22283;BME280;11310;51.528;21.204;2023-01-31T09:04:21;99502.22;;;3.58;100.00
22283;BME280;11310;51.528;21.204;2023-01-31T09:06:52;99512.59;;;3.58;100.00
22283;BME280;11310;51.528;21.204;2023-01-31T09:09:21;99503.06;;;3.60;100.00
22283;BME280;11310;51.528;21.204;2023-01-31T09:11:52;99519.44;;;3.60;100.00
22283;BME280;11310;51.528;21.204;2023-01-31T09:14:21;99515.19;;;3.58;100.00
22283;BME280;11310;51.528;21.204;2023-01-31T09:16:50;99518.63;;;3.60;100.00
22283;BME280;11310;51.528;21.204;2023-01-31T09:19:18;99523.84;;;3.58;100.00
22283;BME280;11310;51.528;21.204;2023-01-31T09:21:48;99520.38;;;3.58;100.00
22283;BME280;11310;51.528;21.204;2023-01-31T09:24:18;99528.16;;;3.58;100.00
22283;BME280;11310;51.528;21.204;2023-01-31T09:26:47;99529.03;;;3.58;100.00
22283;BME280;11310;51.528;21.204;2023-01-31T09:29:15;99530.75;;;3.58;100.00
22283;BME280;11310;51.528;21.204;2023-01-31T09:31:44;99530.66;;;3.62;100.00
22283;BME280;11310;51.528;21.204;2023-01-31T09:34:12;99534.06;;;3.63;100.00
22283;BME280;11310;51.528;21.204;2023-01-31T09:36:43;99540.16;;;3.62;100.00
22283;BME280;11310;51.528;21.204;2023-01-31T09:39:11;99541.88;;;3.61;100.00
22283;BME280;11310;51.528;21.204;2023-01-31T09:41:44;99541.84;;;3.63;100.00
22283;BME280;11310;51.528;21.204;2023-01-31T09:44:16;99548.66;;;3.67;100.00
22283;BME280;11310;51.528;21.204;2023-01-31T09:46:51;99545.25;;;3.66;100.00
22283;BME280;11310;51.528;21.204;2023-01-31T09:49:24;99549.56;;;3.66;100.00
22283;BME280;11310;51.528;21.204;2023-01-31T09:51:58;99546.81;;;3.70;100.00
22283;BME280;11310;51.528;21.204;2023-01-31T09:54:30;99555.44;;;3.72;100.00
22283;BME280;11310;51.528;21.204;2023-01-31T09:57:15;99561.56;;;3.70;100.00
22283;BME280;11310;51.528;21.204;2023-01-31T09:59:48;99560.66;;;3.71;100.00
22283;BME280;11310;51.528;21.204;2023-01-31T10:02:36;99562.34;;;3.72;100.00
22283;BME280;11310;51.528;21.204;2023-01-31T10:05:17;99557.06;;;3.76;100.00
22283;BME280;11310;51.528;21.204;2023-01-31T10:07:58;99564.91;;;3.73;100.00
22283;BME280;11310;51.528;21.204;2023-01-31T10:10:35;99570.03;;;3.76;100.00
22283;BME280;11310;51.528;21.204;2023-01-31T10:13:11;99563.09;;;3.77;100.00
22283;BME280;11310;51.528;21.204;2023-01-31T10:15:47;99559.53;;;3.81;100.00
22283;BME280;11310;51.528;21.204;2023-01-31T10:18:21;99564.81;;;3.78;100.00
22283;BME280;11310;51.528;21.204;2023-01-31T10:20:54;99574.34;;;3.76;100.00
22283;BME280;11310;51.528;21.204;2023-01-31T10:23:27;99571.03;;;3.71;100.00
22283;BME280;11310;51.528;21.204;2023-01-31T10:25:59;99577.19;;;3.67;100.00
22283;BME280;11310;51.528;21.204;2023-01-31T10:28:34;99566.00;;;3.65;100.00
22283;BME280;11310;51.528;21.204;2023-01-31T10:31:10;99570.25;;;3.69;100.00
22283;BME280;11310;51.528;21.204;2023-01-31T10:33:46;99574.50;;;3.71;100.00
22283;BME280;11310;51.528;21.204;2023-01-31T10:36:23;99573.59;;;3.72;100.00
22283;BME280;11310;51.528;21.204;2023-01-31T10:38:59;99573.47;;;3.77;100.00
22283;BME280;11310;51.528;21.204;2023-01-31T10:41:37;99572.59;;;3.78;100.00
22283;BME280;11310;51.528;21.204;2023-01-31T10:44:17;99570.88;;;3.77;100.00
22283;BME280;11310;51.528;21.204;2023-01-31T10:46:47;99573.47;;;3.77;100.00
22283;BME280;11310;51.528;21.204;2023-01-31T10:49:19;99572.63;;;3.76;100.00
22283;BME280;11310;51.528;21.204;2023-01-31T10:51:58;99571.84;;;3.73;100.00
22283;BME280;11310;51.528;21.204;2023-01-31T10:54:43;99577.09;;;3.71;100.00
22283;BME280;11310;51.528;21.204;2023-01-31T10:57:15;99569.25;;;3.73;100.00
22283;BME280;11310;51.528;21.204;2023-01-31T10:59:46;99575.13;;;3.79;100.00
22283;BME280;11310;51.528;21.204;2023-01-31T11:02:18;99560.34;;;3.83;100.00
22283;BME280;11310;51.528;21.204;2023-01-31T11:04:50;99567.06;;;3.90;100.00
22283;BME280;11310;51.528;21.204;2023-01-31T11:07:20;99563.56;;;3.91;100.00
22283;BME280;11310;51.528;21.204;2023-01-31T11:09:51;99568.75;;;3.91;100.00
22283;BME280;11310;51.528;21.204;2023-01-31T11:12:22;99569.59;;;3.93;100.00
22283;BME280;11310;51.528;21.204;2023-01-31T11:15:15;99568.81;;;3.89;100.00
22283;BME280;11310;51.528;21.204;2023-01-31T11:17:45;99562.81;;;3.87;100.00
22283;BME280;11310;51.528;21.204;2023-01-31T11:20:24;99565.38;;;3.89;100.00
22283;BME280;11310;51.528;21.204;2023-01-31T11:22:55;99565.50;;;3.84;100.00
22283;BME280;11310;51.528;21.204;2023-01-31T11:25:26;99569.91;;;3.81;100.00
22283;BME280;11310;51.528;21.204;2023-01-31T11:27:57;99563.94;;;3.77;100.00
22283;BME280;11310;51.528;21.204;2023-01-31T11:30:31;99550.09;;;3.78;100.00
22283;BME280;11310;51.528;21.204;2023-01-31T11:33:01;99557.78;;;3.81;100.00
22283;BME280;11310;51.528;21.204;2023-01-31T11:35:31;99552.56;;;3.83;100.00
22283;BME280;11310;51.528;21.204;2023-01-31T11:38:02;99552.56;;;3.83;100.00
22283;BME280;11310;51.528;21.204;2023-01-31T11:40:32;99565.53;;;3.83;100.00
22283;BME280;11310;51.528;21.204;2023-01-31T11:43:03;99563.81;;;3.82;100.00
22283;BME280;11310;51.528;21.204;2023-01-31T11:45:36;99551.78;;;3.79;100.00
22283;BME280;11310;51.528;21.204;2023-01-31T11:48:08;99560.34;;;3.83;100.00
22283;BME280;11310;51.528;21.204;2023-01-31T11:50:40;99558.59;;;3.83;100.00
22283;BME280;11310;51.528;21.204;2023-01-31T11:53:16;99558.53;;;3.86;100.00
22283;BME280;11310;51.528;21.204;2023-01-31T11:55:46;99564.56;;;3.87;100.00
22283;BME280;11310;51.528;21.204;2023-01-31T11:58:18;99552.41;;;3.89;100.00
22283;BME280;11310;51.528;21.204;2023-01-31T12:00:54;99558.44;;;3.89;100.00
22283;BME280;11310;51.528;21.204;2023-01-31T12:03:24;99559.28;;;3.90;100.00
22283;BME280;11310;51.528;21.204;2023-01-31T12:05:59;99566.28;;;3.88;100.00
22283;BME280;11310;51.528;21.204;2023-01-31T12:08:29;99554.19;;;3.87;100.00
22283;BME280;11310;51.528;21.204;2023-01-31T12:10:58;99554.22;;;3.85;100.00
22283;BME280;11310;51.528;21.204;2023-01-31T12:13:27;99550.78;;;3.85;100.00
22283;BME280;11310;51.528;21.204;2023-01-31T12:15:59;99550.78;;;3.85;100.00
22283;BME280;11310;51.528;21.204;2023-01-31T12:18:43;99547.38;;;3.83;100.00
22283;BME280;11310;51.528;21.204;2023-01-31T12:21:15;99548.25;;;3.82;100.00
22283;BME280;11310;51.528;21.204;2023-01-31T12:23:53;99543.94;;;3.82;100.00
22283;BME280;11310;51.528;21.204;2023-01-31T12:26:33;99541.28;;;3.84;100.00
22283;BME280;11310;51.528;21.204;2023-01-31T12:29:17;99549.03;;;3.85;100.00
22283;BME280;11310;51.528;21.204;2023-01-31T12:32:16;99540.41;;;3.85;100.00
22283;BME280;11310;51.528;21.204;2023-01-31T12:35:07;99535.97;;;3.88;100.00
22283;BME280;11310;51.528;21.204;2023-01-31T12:37:47;99537.72;;;3.88;100.00
22283;BME280;11310;51.528;21.204;2023-01-31T12:40:32;99532.50;;;3.89;96.98
22283;BME280;11310;51.528;21.204;2023-01-31T12:43:16;99532.53;;;3.88;98.75
22283;BME280;11310;51.528;21.204;2023-01-31T12:45:55;99533.34;;;3.90;98.67
22283;BME280;11310;51.528;21.204;2023-01-31T12:48:52;99524.75;;;3.88;97.59
22283;BME280;11310;51.528;21.204;2023-01-31T12:51:49;99534.44;;;3.81;94.35
22283;BME280;11310;51.528;21.204;2023-01-31T12:54:42;99528.44;;;3.79;95.21
22283;BME280;11310;51.528;21.204;2023-01-31T12:57:28;99531.13;;;3.76;96.58
22283;BME280;11310;51.528;21.204;2023-01-31T13:00:07;99538.91;;;3.76;98.44
22283;BME280;11310;51.528;21.204;2023-01-31T13:02:45;99526.88;;;3.74;97.73
22283;BME280;11310;51.528;21.204;2023-01-31T13:05:27;99538.94;;;3.75;96.64
22283;BME280;11310;51.528;21.204;2023-01-31T13:08:01;99538.03;;;3.76;95.72
22283;BME280;11310;51.528;21.204;2023-01-31T13:10:36;99537.16;;;3.77;97.65
22283;BME280;11310;51.528;21.204;2023-01-31T13:13:18;99535.53;;;3.73;94.22
22283;BME280;11310;51.528;21.204;2023-01-31T13:15:54;99539.13;;;3.69;95.23
22283;BME280;11310;51.528;21.204;2023-01-31T13:18:26;99534.00;;;3.66;97.56
22283;BME280;11310;51.528;21.204;2023-01-31T13:21:00;99534.94;;;3.63;97.37